Time;durP1;ratioP1;P1;durP2;ratioP2;P2;SDS_P1;SDS_P2;PMS_P1;PMS_P2;Temp;Humidity;BMP_temperature;BMP_pressure;BME280_temperature;BME280_humidity;BME280_pressure;Samples;Min_cycle;Max_cycle;Signal;HPM_P1;HPM_P2
2021/10/26 00:01:06;;;;;;;;;;;;;;;;;;5096311;28;19923;-83
2021/10/26 00:03:31;;;;;;;;;;;;;;;;;;5095476;28;19923;-84
2021/10/26 00:05:57;;;;;;;;;;;;;;;;;;5095186;28;19922;-85
2021/10/26 00:08:22;;;;;;;;;;;;;;;;;;5096230;28;19956;-84
2021/10/26 00:10:47;;;;;;;;;;;;;;;;;;5096651;28;19923;-83
2021/10/26 00:13:12;;;;;;;;;;;;;;;;;;5096556;28;19916;-85
2021/10/26 00:15:38;;;;;;;;;;;;;;;;;;5095530;28;19912;-86
2021/10/26 00:18:03;;;;;;;;;;;;;;;;;;5096364;28;19916;-82
2021/10/26 00:20:31;;;;;;;;;;;;;;;;;;5096514;28;20253;-82
2021/10/26 00:22:56;;;;;;;;;;;;;;;;;;5095765;28;19952;-81
2021/10/26 00:25:21;;;;;;;;;;;;;;;;;;5099660;28;19912;-81
2021/10/26 00:27:46;;;;;;;;;;;;;;;;;;5108062;28;19896;-85
2021/10/26 00:30:12;;;;;;;;;;;;;;;;;;5118701;28;19976;-84
2021/10/26 00:32:37;;;;;;;;;;;;;;;;;;5119004;28;20330;-82
2021/10/26 00:35:03;;;;;;;;;;;;;;;;;;5104553;28;19924;-85
2021/10/26 00:37:30;;;;;;;;;;;;;;;;;;5097402;28;19912;-82
2021/10/26 00:39:55;;;;;;;;;;;;;;;;;;5095803;28;20261;-86
2021/10/26 00:42:20;;;;;;;;;;;;;;;;;;5096666;28;20334;-84
2021/10/26 00:44:46;;;;;;;;;;;;;;;;;;5095208;28;19912;-84
2021/10/26 00:47:11;;;;;;;;;;;;;;;;;;5095467;28;20007;-82
2021/10/26 00:49:36;;;;;;;;;;;;;;;;;;5095012;28;19950;-85
2021/10/26 00:52:02;;;;;;;;;;;;;;;;;;5095034;28;19963;-82
2021/10/26 00:54:27;;;;;;;;;;;;;;;;;;5095841;28;19916;-85
2021/10/26 00:56:53;;;;;;;;;;;;;;;;;;5096310;28;20403;-87
2021/10/26 00:59:18;;;;;;;;;;;;;;;;;;5095914;28;19912;-86
2021/10/26 01:01:43;;;;;;;;;;;;;;;;;;5096088;28;19916;-87
2021/10/26 01:04:09;;;;;;;;;;;;;;;;;;5096002;28;19977;-86
2021/10/26 01:06:35;;;;;;;;;;;;;;;;;;5097986;28;19940;-81
2021/10/26 01:09:00;;;;;;;;;;;;;;;;;;5113427;28;20258;-80
2021/10/26 01:11:25;;;;;;;;;;;;;;;;;;5109873;28;19916;-82
2021/10/26 01:13:51;;;;;;;;;;;;;;;;;;5103834;28;19916;-85
2021/10/26 01:16:16;;;;;;;;;;;;;;;;;;5097487;28;19959;-85
2021/10/26 01:18:42;;;;;;;;;;;;;;;;;;5098869;28;19945;-83
2021/10/26 01:21:07;;;;;;;;;;;;;;;;;;5100044;28;20046;-83
2021/10/26 01:23:33;;;;;;;;;;;;;;;;;;5095566;28;20234;-85
2021/10/26 01:26:00;;;;;;;;;;;;;;;;;;5094571;28;19912;-84
2021/10/26 01:28:25;;;;;;;;;;;;;;;;;;5095337;28;19919;-81
2021/10/26 01:30:51;;;;;;;;;;;;;;;;;;5094842;28;19912;-83
2021/10/26 01:33:16;;;;;;;;;;;;;;;;;;5094721;28;19916;-84
2021/10/26 01:35:41;;;;;;;;;;;;;;;;;;5098478;28;19930;-82
2021/10/26 01:38:07;;;;;;;;;;;;;;;;;;5099233;28;20246;-86
2021/10/26 01:40:33;;;;;;;;;;;;;;;;;;5099035;28;19911;-82
2021/10/26 01:42:58;;;;;;;;;;;;;;;;;;5098980;28;19923;-86
2021/10/26 01:45:23;;;;;;;;;;;;;;;;;;5099923;28;19926;-85
2021/10/26 01:47:49;;;;;;;;;;;;;;;;;;5100240;28;20281;-83
2021/10/26 01:50:15;;;;;;;;;;;;;;;;;;5099075;28;19931;-86
2021/10/26 01:52:41;;;;;;;;;;;;;;;;;;5100296;28;19924;-84
2021/10/26 01:55:08;;;;;;;;;;;;;;;;;;5101719;28;19912;-83
2021/10/26 01:57:34;;;;;;;;;;;;;;;;;;5100573;28;19919;-83
2021/10/26 02:00:00;;;;;;;;;;;;;;;;;;5104434;28;19943;-86
2021/10/26 02:02:26;;;;;;;;;;;;;;;;;;5115251;28;19904;-81
2021/10/26 02:04:52;;;;;;;;;;;;;;;;;;5109771;28;19924;-86
2021/10/26 02:07:17;;;;;;;;;;;;;;;;;;5099214;28;19969;-87
2021/10/26 02:09:42;;;;;;;;;;;;;;;;;;5099838;28;19916;-84
2021/10/26 02:12:08;;;;;;;;;;;;;;;;;;5100003;28;19965;-84
2021/10/26 02:14:33;;;;;;;;;;;;;;;;;;5100035;28;20006;-86
2021/10/26 02:16:59;;;;;;;;;;;;;;;;;;5101695;28;19912;-82
2021/10/26 02:19:24;;;;;;;;;;;;;;;;;;5103189;28;19951;-83
2021/10/26 02:21:50;;;;;;;;;;;;;;;;;;5105188;28;20326;-83
2021/10/26 02:24:15;;;;;;;;;;;;;;;;;;5107786;28;19912;-84
2021/10/26 02:26:40;;;;;;;;;;;;;;;;;;5101539;28;19916;-85
2021/10/26 02:29:06;;;;;;;;;;;;;;;;;;5098616;28;19912;-84
2021/10/26 02:31:31;;;;;;;;;;;;;;;;;;5099293;28;19931;-83
2021/10/26 02:33:56;;;;;;;;;;;;;;;;;;5097540;28;19931;-87
2021/10/26 02:36:21;;;;;;;;;;;;;;;;;;5098484;28;20010;-84
2021/10/26 02:38:47;;;;;;;;;;;;;;;;;;5098780;28;19935;-85
2021/10/26 02:41:12;;;;;;;;;;;;;;;;;;5098672;28;19912;-85
2021/10/26 02:43:37;;;;;;;;;;;;;;;;;;5098794;28;19912;-82
2021/10/26 02:46:03;;;;;;;;;;;;;;;;;;5096587;28;19912;-85
2021/10/26 02:48:28;;;;;;;;;;;;;;;;;;5098441;28;19916;-85
2021/10/26 02:50:54;;;;;;;;;;;;;;;;;;5098641;28;20388;-83
2021/10/26 02:53:19;;;;;;;;;;;;;;;;;;5098093;28;20318;-82
2021/10/26 02:55:44;;;;;;;;;;;;;;;;;;5100298;28;19919;-82
2021/10/26 02:58:09;;;;;;;;;;;;;;;;;;5100192;28;19967;-83
2021/10/26 03:00:35;;;;;;;;;;;;;;;;;;5098737;28;19939;-85
2021/10/26 03:03:00;;;;;;;;;;;;;;;;;;5098724;28;20253;-84
2021/10/26 03:05:25;;;;;;;;;;;;;;;;;;5098373;28;19912;-87
2021/10/26 03:07:51;;;;;;;;;;;;;;;;;;5098379;28;19923;-86
2021/10/26 03:10:16;;;;;;;;;;;;;;;;;;5098111;28;19923;-85
2021/10/26 03:12:41;;;;;;;;;;;;;;;;;;5098287;28;19916;-82
2021/10/26 03:15:08;;;;;;;;;;;;;;;;;;5098318;28;19913;-83
2021/10/26 03:17:33;;;;;;;;;;;;;;;;;;5098063;28;19916;-83
2021/10/26 03:19:59;;;;;;;;;;;;;;;;;;5098507;28;20235;-84
2021/10/26 03:22:25;;;;;;;;;;;;;;;;;;5098024;28;19942;-83
2021/10/26 03:24:50;;;;;;;;;;;;;;;;;;5097588;28;19928;-85
2021/10/26 03:27:15;;;;;;;;;;;;;;;;;;5097826;28;19912;-85
2021/10/26 03:29:41;;;;;;;;;;;;;;;;;;5097285;28;19998;-84
2021/10/26 03:32:06;;;;;;;;;;;;;;;;;;5099022;28;19912;-85
2021/10/26 03:34:31;;;;;;;;;;;;;;;;;;5097184;28;20353;-84
2021/10/26 03:36:57;;;;;;;;;;;;;;;;;;5096708;28;19911;-84
2021/10/26 03:39:22;;;;;;;;;;;;;;;;;;5098587;28;20012;-83
2021/10/26 03:41:47;;;;;;;;;;;;;;;;;;5104606;28;19912;-83
2021/10/26 03:44:12;;;;;;;;;;;;;;;;;;5099219;28;19940;-83
2021/10/26 03:46:38;;;;;;;;;;;;;;;;;;5099258;28;20223;-86
2021/10/26 03:49:03;;;;;;;;;;;;;;;;;;5100201;28;20383;-82
2021/10/26 03:51:30;;;;;;;;;;;;;;;;;;5106954;28;19920;-81
2021/10/26 03:53:55;;;;;;;;;;;;;;;;;;5105491;28;19919;-83
2021/10/26 03:56:21;;;;;;;;;;;;;;;;;;5101895;28;20242;-83
2021/10/26 03:58:46;;;;;;;;;;;;;;;;;;5101656;28;19999;-87
2021/10/26 04:01:12;;;;;;;;;;;;;;;;;;5098099;28;19912;-85
2021/10/26 04:03:37;;;;;;;;;;;;;;;;;;5097251;28;19923;-86
2021/10/26 04:06:05;;;;;;;;;;;;;;;;;;5096169;28;19923;-87
2021/10/26 04:08:39;;;;;;;;;;;;;;;;;;5096129;28;19912;-83
2021/10/26 04:11:11;;;;;;;;;;;;;;;;;;5096144;28;20300;-84
2021/10/26 04:13:37;;;;;;;;;;;;;;;;;;5097154;28;19923;-83
2021/10/26 04:16:02;;;;;;;;;;;;;;;;;;5097046;28;19913;-83
2021/10/26 04:18:28;;;;;;;;;;;;;;;;;;5097291;28;19912;-84
2021/10/26 04:20:53;;;;;;;;;;;;;;;;;;5097651;28;19920;-86
2021/10/26 04:23:19;;;;;;;;;;;;;;;;;;5096077;28;19912;-83
2021/10/26 04:25:44;;;;;;;;;;;;;;;;;;5099615;28;19916;-84
2021/10/26 04:28:09;;;;;;;;;;;;;;;;;;5098512;28;19923;-84
2021/10/26 04:30:36;;;;;;;;;;;;;;;;;;5097340;28;20340;-82
2021/10/26 04:33:02;;;;;;;;;;;;;;;;;;5096688;28;19923;-81
2021/10/26 04:35:28;;;;;;;;;;;;;;;;;;5099159;28;19912;-81
2021/10/26 04:37:53;;;;;;;;;;;;;;;;;;5106247;28;19913;-81
2021/10/26 04:40:18;;;;;;;;;;;;;;;;;;5118264;28;19920;-82
2021/10/26 04:42:44;;;;;;;;;;;;;;;;;;5118424;28;19916;-85
2021/10/26 04:45:09;;;;;;;;;;;;;;;;;;5103903;28;19934;-83
2021/10/26 04:47:36;;;;;;;;;;;;;;;;;;5099288;28;19942;-84
2021/10/26 04:50:05;;;;;;;;;;;;;;;;;;5100297;28;19980;-83
2021/10/26 04:52:32;;;;;;;;;;;;;;;;;;5103283;28;19958;-83
2021/10/26 04:54:58;;;;;;;;;;;;;;;;;;5104228;28;19923;-81
2021/10/26 04:57:26;;;;;;;;;;;;;;;;;;5104451;28;20239;-84
2021/10/26 04:59:54;;;;;;;;;;;;;;;;;;5104312;28;19912;-82
2021/10/26 05:02:19;;;;;;;;;;;;;;;;;;5100569;28;19922;-83
2021/10/26 05:04:45;;;;;;;;;;;;;;;;;;5108616;28;19943;-81
2021/10/26 05:07:15;;;;;;;;;;;;;;;;;;5109316;28;19924;-82
2021/10/26 05:09:40;;;;;;;;;;;;;;;;;;5110265;28;19951;-85
2021/10/26 05:12:05;;;;;;;;;;;;;;;;;;5108873;28;20375;-84
2021/10/26 05:14:31;;;;;;;;;;;;;;;;;;5111008;28;20366;-83
2021/10/26 05:16:57;;;;;;;;;;;;;;;;;;5110444;28;19939;-84
2021/10/26 05:19:24;;;;;;;;;;;;;;;;;;5106860;28;19934;-80
2021/10/26 05:21:49;;;;;;;;;;;;;;;;;;5105471;28;19912;-83
2021/10/26 05:24:15;;;;;;;;;;;;;;;;;;5105616;28;19982;-82
2021/10/26 05:26:41;;;;;;;;;;;;;;;;;;5106919;28;19912;-84
2021/10/26 05:29:09;;;;;;;;;;;;;;;;;;5104856;28;20296;-81
2021/10/26 05:31:35;;;;;;;;;;;;;;;;;;5102365;28;19916;-84
2021/10/26 05:34:00;;;;;;;;;;;;;;;;;;5100459;28;19927;-84
2021/10/26 05:36:25;;;;;;;;;;;;;;;;;;5102374;28;19912;-84
2021/10/26 05:38:51;;;;;;;;;;;;;;;;;;5102078;28;19949;-84
2021/10/26 05:41:17;;;;;;;;;;;;;;;;;;5099942;28;19920;-84
2021/10/26 05:43:42;;;;;;;;;;;;;;;;;;5099620;28;19949;-86
2021/10/26 05:46:07;;;;;;;;;;;;;;;;;;5099395;28;19923;-88
2021/10/26 05:48:33;;;;;;;;;;;;;;;;;;5098157;28;19977;-85
2021/10/26 05:51:01;;;;;;;;;;;;;;;;;;5098445;28;19920;-82
2021/10/26 05:53:27;;;;;;;;;;;;;;;;;;5099230;28;19916;-84
2021/10/26 05:55:52;;;;;;;;;;;;;;;;;;5098636;28;19912;-84
2021/10/26 05:58:18;;;;;;;;;;;;;;;;;;5099976;28;19912;-84
2021/10/26 06:00:43;;;;;;;;;;;;;;;;;;5098907;28;19912;-84
2021/10/26 06:03:08;;;;;;;;;;;;;;;;;;5099054;28;19963;-85
2021/10/26 06:05:34;;;;;;;;;;;;;;;;;;5099722;28;19920;-85
2021/10/26 06:07:59;;;;;;;;;;;;;;;;;;5099368;28;19919;-84
2021/10/26 06:10:26;;;;;;;;;;;;;;;;;;5098942;28;19916;-84
2021/10/26 06:12:55;;;;;;;;;;;;;;;;;;5098258;28;19916;-84
2021/10/26 06:15:20;;;;;;;;;;;;;;;;;;5103925;28;19912;-83
2021/10/26 06:17:46;;;;;;;;;;;;;;;;;;5104767;28;20007;-84
2021/10/26 06:20:11;;;;;;;;;;;;;;;;;;5106406;28;20273;-83
2021/10/26 06:22:37;;;;;;;;;;;;;;;;;;5105232;28;20394;-83
2021/10/26 06:25:03;;;;;;;;;;;;;;;;;;5104587;28;19912;-83
2021/10/26 06:27:29;;;;;;;;;;;;;;;;;;5103494;28;19984;-81
2021/10/26 06:29:54;;;;;;;;;;;;;;;;;;5103121;28;20143;-83
2021/10/26 06:32:19;;;;;;;;;;;;;;;;;;5103751;28;19916;-85
2021/10/26 06:34:45;;;;;;;;;;;;;;;;;;5103129;28;19927;-83
2021/10/26 06:37:10;;;;;;;;;;;;;;;;;;5102944;28;20403;-83
2021/10/26 06:39:35;;;;;;;;;;;;;;;;;;5099421;28;19912;-83
2021/10/26 06:42:00;;;;;;;;;;;;;;;;;;5098951;28;19923;-84
2021/10/26 06:44:26;;;;;;;;;;;;;;;;;;5097563;28;19916;-84
2021/10/26 06:46:51;;;;;;;;;;;;;;;;;;5098830;28;19912;-84
2021/10/26 06:49:16;;;;;;;;;;;;;;;;;;5101272;28;20003;-84
2021/10/26 06:51:41;;;;;;;;;;;;;;;;;;5099028;28;19951;-82
2021/10/26 06:54:07;;;;;;;;;;;;;;;;;;5098443;28;20261;-87
2021/10/26 06:56:32;;;;;;;;;;;;;;;;;;5098949;28;20267;-83
2021/10/26 06:58:57;;;;;;;;;;;;;;;;;;5098057;28;19912;-82
2021/10/26 07:01:22;;;;;;;;;;;;;;;;;;5098065;28;19912;-83
2021/10/26 07:03:48;;;;;;;;;;;;;;;;;;5100517;28;19930;-84
2021/10/26 07:06:13;;;;;;;;;;;;;;;;;;5106338;28;20357;-83
2021/10/26 07:08:39;;;;;;;;;;;;;;;;;;5099544;28;20330;-82
2021/10/26 07:11:05;;;;;;;;;;;;;;;;;;5101285;28;19916;-86
2021/10/26 07:13:33;;;;;;;;;;;;;;;;;;5099208;28;19979;-83
2021/10/26 07:15:58;;;;;;;;;;;;;;;;;;5101278;28;19999;-83
2021/10/26 07:18:23;;;;;;;;;;;;;;;;;;5100912;28;19962;-83
2021/10/26 07:20:48;;;;;;;;;;;;;;;;;;5099378;28;19912;-88
2021/10/26 07:23:14;;;;;;;;;;;;;;;;;;5097624;28;19919;-83
2021/10/26 07:25:39;;;;;;;;;;;;;;;;;;5096407;28;20417;-84
2021/10/26 07:28:04;;;;;;;;;;;;;;;;;;5096800;28;19916;-87
2021/10/26 07:30:33;;;;;;;;;;;;;;;;;;5096879;28;20335;-82
2021/10/26 07:33:03;;;;;;;;;;;;;;;;;;5098119;28;20342;-84
2021/10/26 07:35:37;;;;;;;;;;;;;;;;;;5097013;28;20006;-85
2021/10/26 07:38:02;;;;;;;;;;;;;;;;;;5097631;28;20365;-86
2021/10/26 07:40:28;;;;;;;;;;;;;;;;;;5097310;28;19912;-85
2021/10/26 07:42:53;;;;;;;;;;;;;;;;;;5096881;28;19912;-86
2021/10/26 07:45:18;;;;;;;;;;;;;;;;;;5097005;28;19919;-86
2021/10/26 07:47:44;;;;;;;;;;;;;;;;;;5095891;28;19912;-86
2021/10/26 07:50:09;;;;;;;;;;;;;;;;;;5095654;28;19995;-87
2021/10/26 07:52:35;;;;;;;;;;;;;;;;;;5096037;28;19969;-85
2021/10/26 07:55:00;;;;;;;;;;;;;;;;;;5098235;28;19987;-82
2021/10/26 07:57:26;;;;;;;;;;;;;;;;;;5102011;28;20011;-85
2021/10/26 07:59:52;;;;;;;;;;;;;;;;;;5102860;28;19919;-84
2021/10/26 08:02:19;;;;;;;;;;;;;;;;;;5106783;28;19912;-85
2021/10/26 08:04:44;;;;;;;;;;;;;;;;;;5109725;28;19912;-82
2021/10/26 08:07:10;;;;;;;;;;;;;;;;;;5117310;28;19905;-82
2021/10/26 08:09:35;;;;;;;;;;;;;;;;;;5114096;28;19923;-82
2021/10/26 08:12:01;;;;;;;;;;;;;;;;;;5114468;28;19919;-83
2021/10/26 08:14:26;;;;;;;;;;;;;;;;;;5110225;28;20018;-85
2021/10/26 08:16:52;;;;;;;;;;;;;;;;;;5105382;28;19912;-84
2021/10/26 08:19:17;;;;;;;;;;;;;;;;;;5109037;28;19912;-85
2021/10/26 08:21:42;;;;;;;;;;;;;;;;;;5109629;28;19912;-83
2021/10/26 08:24:08;;;;;;;;;;;;;;;;;;5108568;28;19922;-84
2021/10/26 08:26:44;;;;;;;;;;;;;;;;;;5109068;28;20299;-83
2021/10/26 08:29:17;;;;;;;;;;;;;;;;;;5108984;28;19979;-83
2021/10/26 08:36:35;;;;;;;;;;;;;;;;;;5098979;28;19916;-82
2021/10/26 08:39:00;;;;;;;;;;;;;;;;;;5098487;28;19920;-83
2021/10/26 08:41:26;;;;;;;;;;;;;;;;;;5098830;28;19966;-82
2021/10/26 08:43:52;;;;;;;;;;;;;;;;;;5098068;28;19912;-83
2021/10/26 08:46:17;;;;;;;;;;;;;;;;;;5099266;28;20261;-83
2021/10/26 08:48:44;;;;;;;;;;;;;;;;;;5100019;28;19983;-83
2021/10/26 08:51:09;;;;;;;;;;;;;;;;;;5099603;28;20003;-83
2021/10/26 08:53:34;;;;;;;;;;;;;;;;;;5100092;28;20027;-83
2021/10/26 08:56:02;;;;;;;;;;;;;;;;;;5101378;28;19984;-83
2021/10/26 08:58:28;;;;;;;;;;;;;;;;;;5099897;28;19986;-83
2021/10/26 09:00:54;;;;;;;;;;;;;;;;;;5100175;28;19920;-83
2021/10/26 09:03:20;;;;;;;;;;;;;;;;;;5100010;28;20460;-83
2021/10/26 09:05:46;;;;;;;;;;;;;;;;;;5100097;28;20330;-83
2021/10/26 09:08:12;;;;;;;;;;;;;;;;;;5099856;28;19943;-84
2021/10/26 09:10:38;;;;;;;;;;;;;;;;;;5102483;28;19938;-83
2021/10/26 09:18:35;;;;;;;;;;;;;;;;;;5099367;28;19990;-84
2021/10/26 09:21:01;;;;;;;;;;;;;;;;;;5099245;28;19920;-81
2021/10/26 09:23:29;;;;;;;;;;;;;;;;;;5099365;28;20341;-83
2021/10/26 09:25:58;;;;;;;;;;;;;;;;;;5098159;28;19912;-83
2021/10/26 09:28:25;;;;;;;;;;;;;;;;;;5099447;28;19934;-83
2021/10/26 09:31:00;;;;;;;;;;;;;;;;;;5098196;28;19913;-82
2021/10/26 09:33:30;;;;;;;;;;;;;;;;;;5099185;28;19927;-83
2021/10/26 09:36:15;;;;;;;;;;;;;;;;;;5100272;28;20021;-83
2021/10/26 09:38:40;;;;;;;;;;;;;;;;;;5099069;28;20354;-84
2021/10/26 09:41:06;;;;;;;;;;;;;;;;;;5104212;28;19938;-83
2021/10/26 09:43:31;;;;;;;;;;;;;;;;;;5106653;28;19912;-82
2021/10/26 09:46:02;;;;;;;;;;;;;;;;;;5097814;28;20014;-82
2021/10/26 09:48:31;;;;;;;;;;;;;;;;;;5099365;28;20270;-82
2021/10/26 09:51:08;;;;;;;;;;;;;;;;;;5098656;28;19921;-82
2021/10/26 09:53:34;;;;;;;;;;;;;;;;;;5098712;28;19916;-82
2021/10/26 09:56:01;;;;;;;;;;;;;;;;;;5097221;28;19912;-82
2021/10/26 09:58:29;;;;;;;;;;;;;;;;;;5098995;28;19923;-82
2021/10/26 10:01:03;;;;;;;;;;;;;;;;;;5097812;28;19973;-83
2021/10/26 10:03:29;;;;;;;;;;;;;;;;;;5098875;28;20257;-82
2021/10/26 10:06:01;;;;;;;;;;;;;;;;;;5098845;28;20285;-84
2021/10/26 10:08:36;;;;;;;;;;;;;;;;;;5098683;28;19912;-82
2021/10/26 10:11:19;;;;;;;;;;;;;;;;;;5097758;28;19978;-84
2021/10/26 10:13:45;;;;;;;;;;;;;;;;;;5097372;28;20352;-83
2021/10/26 10:16:10;;;;;;;;;;;;;;;;;;5098473;28;19912;-84
2021/10/26 10:18:36;;;;;;;;;;;;;;;;;;5097076;28;19939;-84
2021/10/26 10:21:02;;;;;;;;;;;;;;;;;;5097111;28;20257;-82
2021/10/26 10:23:28;;;;;;;;;;;;;;;;;;5098445;28;19912;-82
2021/10/26 10:25:54;;;;;;;;;;;;;;;;;;5096956;28;19916;-83
2021/10/26 10:28:20;;;;;;;;;;;;;;;;;;5096997;28;19966;-82
2021/10/26 10:30:46;;;;;;;;;;;;;;;;;;5098026;28;19916;-82
2021/10/26 10:33:12;;;;;;;;;;;;;;;;;;5097665;28;19923;-83
2021/10/26 10:35:38;;;;;;;;;;;;;;;;;;5098079;28;19912;-82
2021/10/26 10:38:05;;;;;;;;;;;;;;;;;;5096586;28;19923;-82
2021/10/26 10:40:32;;;;;;;;;;;;;;;;;;5097639;28;19931;-82
2021/10/26 10:42:58;;;;;;;;;;;;;;;;;;5097846;28;19912;-82
2021/10/26 10:45:31;;;;;;;;;;;;;;;;;;5098032;28;19923;-81
2021/10/26 10:47:56;;;;;;;;;;;;;;;;;;5097510;28;19912;-84
2021/10/26 10:50:35;;;;;;;;;;;;;;;;;;5097664;28;19951;-83
2021/10/26 10:53:15;;;;;;;;;;;;;;;;;;5098078;28;19916;-83
2021/10/26 10:55:44;;;;;;;;;;;;;;;;;;5097998;28;19994;-83
2021/10/26 10:58:27;;;;;;;;;;;;;;;;;;5098313;28;19912;-83
2021/10/26 11:01:12;;;;;;;;;;;;;;;;;;5097812;28;19934;-83
2021/10/26 11:03:37;;;;;;;;;;;;;;;;;;5096742;28;19916;-83
2021/10/26 11:06:02;;;;;;;;;;;;;;;;;;5096432;28;20311;-84
2021/10/26 11:08:45;;;;;;;;;;;;;;;;;;5096843;28;19927;-83
2021/10/26 11:11:10;;;;;;;;;;;;;;;;;;5096164;28;19911;-84
2021/10/26 11:13:36;;;;;;;;;;;;;;;;;;5097327;28;19927;-84
2021/10/26 11:16:05;;;;;;;;;;;;;;;;;;5095621;28;19912;-84
2021/10/26 11:18:34;;;;;;;;;;;;;;;;;;5096709;28;19912;-83
2021/10/26 11:21:07;;;;;;;;;;;;;;;;;;5096934;28;20350;-83
2021/10/26 11:23:43;;;;;;;;;;;;;;;;;;5097758;28;19923;-84
2021/10/26 11:26:11;;;;;;;;;;;;;;;;;;5097441;28;19951;-84
2021/10/26 11:28:37;;;;;;;;;;;;;;;;;;5097256;28;19911;-85
2021/10/26 11:31:04;;;;;;;;;;;;;;;;;;5096964;28;20026;-84
2021/10/26 11:33:30;;;;;;;;;;;;;;;;;;5097179;28;19932;-83
2021/10/26 11:36:05;;;;;;;;;;;;;;;;;;5098554;28;19916;-85
2021/10/26 11:38:32;;;;;;;;;;;;;;;;;;5097399;28;19986;-83
2021/10/26 11:41:10;;;;;;;;;;;;;;;;;;5095859;28;19912;-83
2021/10/26 11:43:45;;;;;;;;;;;;;;;;;;5097611;28;19923;-83
2021/10/26 11:46:14;;;;;;;;;;;;;;;;;;5096047;28;20380;-83
2021/10/26 11:48:54;;;;;;;;;;;;;;;;;;5096493;28;19990;-83
2021/10/26 11:51:21;;;;;;;;;;;;;;;;;;5099767;28;19920;-83
2021/10/26 11:53:51;;;;;;;;;;;;;;;;;;5099660;28;20188;-83
2021/10/26 11:56:37;;;;;;;;;;;;;;;;;;5099549;28;20300;-82
2021/10/26 11:59:05;;;;;;;;;;;;;;;;;;5098869;28;19912;-83
2021/10/26 12:01:43;;;;;;;;;;;;;;;;;;5100425;28;19916;-81
2021/10/26 12:04:27;;;;;;;;;;;;;;;;;;5097156;28;20003;-82
2021/10/26 12:06:55;;;;;;;;;;;;;;;;;;5096210;28;20007;-82
2021/10/26 12:09:22;;;;;;;;;;;;;;;;;;5101085;28;19966;-81
2021/10/26 12:11:48;;;;;;;;;;;;;;;;;;5104142;28;20003;-82
2021/10/26 12:14:21;;;;;;;;;;;;;;;;;;5109795;28;19916;-83
2021/10/26 12:17:06;;;;;;;;;;;;;;;;;;5106869;28;20002;-82
2021/10/26 12:19:32;;;;;;;;;;;;;;;;;;5102478;28;19944;-82
2021/10/26 12:21:57;;;;;;;;;;;;;;;;;;5103532;28;19912;-84
2021/10/26 12:24:24;;;;;;;;;;;;;;;;;;5096854;28;20014;-82
2021/10/26 12:27:16;;;;;;;;;;;;;;;;;;5099844;28;19916;-82
2021/10/26 12:29:42;;;;;;;;;;;;;;;;;;5074011;28;19916;-83
2021/10/26 12:32:07;;;;;;;;;;;;;;;;;;5096966;28;19912;-84
2021/10/26 12:34:42;;;;;;;;;;;;;;;;;;5097536;28;20010;-84
2021/10/26 12:37:16;;;;;;;;;;;;;;;;;;5096771;28;19912;-83
2021/10/26 12:39:45;;;;;;;;;;;;;;;;;;5095838;28;19935;-85
2021/10/26 12:42:27;;;;;;;;;;;;;;;;;;5097050;28;20010;-82
2021/10/26 12:44:53;;;;;;;;;;;;;;;;;;5097782;28;19912;-83
2021/10/26 12:47:18;;;;;;;;;;;;;;;;;;5095835;28;19912;-83
2021/10/26 12:49:43;;;;;;;;;;;;;;;;;;5095842;28;20350;-85
2021/10/26 12:52:13;;;;;;;;;;;;;;;;;;5097001;28;19969;-84
2021/10/26 12:54:38;;;;;;;;;;;;;;;;;;5096960;28;20261;-83
2021/10/26 12:57:04;;;;;;;;;;;;;;;;;;5099638;28;19917;-83
2021/10/26 12:59:31;;;;;;;;;;;;;;;;;;5100545;28;19919;-82
2021/10/26 13:02:00;;;;;;;;;;;;;;;;;;5104098;28;20300;-82
2021/10/26 13:04:26;;;;;;;;;;;;;;;;;;5105888;28;19943;-83
2021/10/26 13:07:00;;;;;;;;;;;;;;;;;;5100560;28;20001;-81
2021/10/26 13:09:36;;;;;;;;;;;;;;;;;;5098888;28;19991;-83
2021/10/26 13:12:17;;;;;;;;;;;;;;;;;;5096511;28;20242;-83
2021/10/26 13:14:46;;;;;;;;;;;;;;;;;;5096238;28;20433;-83
2021/10/26 13:17:26;;;;;;;;;;;;;;;;;;5094521;28;19966;-83
2021/10/26 13:20:10;;;;;;;;;;;;;;;;;;5095960;28;20003;-83
2021/10/26 13:22:35;;;;;;;;;;;;;;;;;;5096268;28;20250;-83
2021/10/26 13:25:01;;;;;;;;;;;;;;;;;;5096046;28;19920;-82
2021/10/26 13:27:26;;;;;;;;;;;;;;;;;;5096633;28;20376;-83
2021/10/26 13:29:51;;;;;;;;;;;;;;;;;;5100466;28;19923;-84
2021/10/26 13:32:18;;;;;;;;;;;;;;;;;;5101251;28;20006;-83
2021/10/26 13:34:44;;;;;;;;;;;;;;;;;;5099429;28;19916;-84
2021/10/26 13:37:09;;;;;;;;;;;;;;;;;;5098654;28;19912;-82
2021/10/26 13:39:35;;;;;;;;;;;;;;;;;;5099495;28;20088;-83
2021/10/26 13:42:00;;;;;;;;;;;;;;;;;;5098201;28;19912;-83
2021/10/26 13:44:25;;;;;;;;;;;;;;;;;;5099235;28;20346;-82
2021/10/26 13:46:50;;;;;;;;;;;;;;;;;;5098830;28;19973;-83
2021/10/26 13:49:16;;;;;;;;;;;;;;;;;;5097864;28;19931;-83
2021/10/26 13:51:42;;;;;;;;;;;;;;;;;;5098068;28;19916;-82
2021/10/26 13:54:07;;;;;;;;;;;;;;;;;;5097836;28;19931;-83
2021/10/26 13:56:32;;;;;;;;;;;;;;;;;;5099383;28;19911;-82
2021/10/26 13:58:58;;;;;;;;;;;;;;;;;;5098446;28;19963;-82
2021/10/26 14:01:24;;;;;;;;;;;;;;;;;;5099563;28;19912;-81
2021/10/26 14:03:49;;;;;;;;;;;;;;;;;;5100033;28;19912;-83
2021/10/26 14:06:15;;;;;;;;;;;;;;;;;;5099748;28;19916;-82
2021/10/26 14:08:42;;;;;;;;;;;;;;;;;;5099968;28;19919;-83
2021/10/26 14:11:08;;;;;;;;;;;;;;;;;;5099146;28;19912;-82
2021/10/26 14:13:37;;;;;;;;;;;;;;;;;;5103803;28;19924;-83
2021/10/26 14:16:02;;;;;;;;;;;;;;;;;;5101477;28;20007;-83
2021/10/26 14:18:27;;;;;;;;;;;;;;;;;;5100102;28;20313;-82
2021/10/26 14:20:58;;;;;;;;;;;;;;;;;;5099296;28;19956;-83
2021/10/26 14:23:23;;;;;;;;;;;;;;;;;;5098751;28;20010;-83
2021/10/26 14:25:54;;;;;;;;;;;;;;;;;;5098806;28;19951;-83
2021/10/26 14:28:20;;;;;;;;;;;;;;;;;;5098232;28;19954;-82
2021/10/26 14:30:45;;;;;;;;;;;;;;;;;;5097974;28;19976;-83
2021/10/26 14:33:12;;;;;;;;;;;;;;;;;;5101080;28;19924;-82
2021/10/26 14:35:42;;;;;;;;;;;;;;;;;;5098070;28;19959;-83
2021/10/26 14:38:17;;;;;;;;;;;;;;;;;;5097495;28;19911;-83
2021/10/26 14:56:51;;;;;;;;;;;;;;;;;;5098822;28;19912;-83
2021/10/26 14:59:16;;;;;;;;;;;;;;;;;;5097739;28;19912;-84
2021/10/26 15:01:42;;;;;;;;;;;;;;;;;;5097058;28;19912;-83
2021/10/26 15:04:08;;;;;;;;;;;;;;;;;;5097217;28;20253;-84
2021/10/26 15:06:34;;;;;;;;;;;;;;;;;;5098384;28;19935;-83
2021/10/26 15:09:23;;;;;;;;;;;;;;;;;;5097667;28;19942;-83
2021/10/26 15:11:53;;;;;;;;;;;;;;;;;;5097839;28;20013;-83
2021/10/26 15:14:18;;;;;;;;;;;;;;;;;;5097271;28;19920;-83
2021/10/26 15:16:45;;;;;;;;;;;;;;;;;;5096463;28;20301;-83
2021/10/26 15:19:15;;;;;;;;;;;;;;;;;;5099633;28;20265;-83
2021/10/26 15:22:05;;;;;;;;;;;;;;;;;;5099604;28;20004;-84
2021/10/26 15:35:13;;;;;;;;;;;;;;;;;;5097579;28;19974;-84
2021/10/26 15:37:38;;;;;;;;;;;;;;;;;;5095698;28;19912;-81
2021/10/26 15:40:04;;;;;;;;;;;;;;;;;;5096798;28;19974;-81
2021/10/26 15:42:29;;;;;;;;;;;;;;;;;;5095716;28;19920;-81
2021/10/26 15:44:54;;;;;;;;;;;;;;;;;;5096977;28;19922;-84
2021/10/26 15:47:20;;;;;;;;;;;;;;;;;;5095948;28;20239;-82
2021/10/26 15:49:45;;;;;;;;;;;;;;;;;;5095982;28;19924;-83
2021/10/26 15:52:11;;;;;;;;;;;;;;;;;;5097288;28;19912;-82
2021/10/26 15:54:37;;;;;;;;;;;;;;;;;;5097006;28;19920;-82
2021/10/26 15:57:02;;;;;;;;;;;;;;;;;;5096804;28;19927;-81
2021/10/26 15:59:28;;;;;;;;;;;;;;;;;;5095435;28;20015;-83
2021/10/26 16:01:55;;;;;;;;;;;;;;;;;;5095454;28;19996;-83
2021/10/26 16:04:21;;;;;;;;;;;;;;;;;;5096893;28;20253;-82
2021/10/26 16:06:48;;;;;;;;;;;;;;;;;;5095687;28;20011;-84
2021/10/26 16:09:13;;;;;;;;;;;;;;;;;;5096024;28;19912;-81
2021/10/26 16:11:46;;;;;;;;;;;;;;;;;;5096826;28;20265;-82
2021/10/26 16:14:12;;;;;;;;;;;;;;;;;;5096816;28;20299;-83
2021/10/26 16:16:38;;;;;;;;;;;;;;;;;;5099380;28;19912;-84
2021/10/26 16:19:04;;;;;;;;;;;;;;;;;;5114498;28;19923;-81
2021/10/26 16:21:30;;;;;;;;;;;;;;;;;;5116108;28;19928;-81
2021/10/26 16:23:55;;;;;;;;;;;;;;;;;;5108122;28;19912;-83
2021/10/26 16:26:20;;;;;;;;;;;;;;;;;;5101103;28;19912;-82
2021/10/26 16:28:47;;;;;;;;;;;;;;;;;;5100110;28;19927;-83
2021/10/26 16:31:12;;;;;;;;;;;;;;;;;;5096672;28;19923;-83
2021/10/26 16:33:38;;;;;;;;;;;;;;;;;;5096398;28;19916;-83
2021/10/26 16:36:06;;;;;;;;;;;;;;;;;;5095146;28;20246;-83
2021/10/26 16:38:31;;;;;;;;;;;;;;;;;;5095970;28;20367;-83
2021/10/26 16:40:57;;;;;;;;;;;;;;;;;;5100647;28;19959;-82
2021/10/26 16:46:14;;;;;;;;;;;;;;;;;;5109573;28;20388;-81
2021/10/26 16:48:39;;;;;;;;;;;;;;;;;;5105755;28;19912;-82
2021/10/26 16:51:04;;;;;;;;;;;;;;;;;;5101614;28;20461;-83
2021/10/26 16:53:29;;;;;;;;;;;;;;;;;;5096522;28;19916;-82
2021/10/26 16:55:55;;;;;;;;;;;;;;;;;;5095939;28;20289;-81
2021/10/26 16:58:20;;;;;;;;;;;;;;;;;;5095112;28;20250;-82
2021/10/26 17:00:49;;;;;;;;;;;;;;;;;;5098353;28;20344;-83
2021/10/26 17:03:15;;;;;;;;;;;;;;;;;;5096484;28;19927;-82
2021/10/26 17:05:40;;;;;;;;;;;;;;;;;;5097631;28;19916;-83
2021/10/26 17:08:06;;;;;;;;;;;;;;;;;;5099614;28;19916;-84
2021/10/26 17:10:35;;;;;;;;;;;;;;;;;;5101337;28;20002;-82
2021/10/26 17:13:01;;;;;;;;;;;;;;;;;;5104077;28;19924;-82
2021/10/26 17:15:26;;;;;;;;;;;;;;;;;;5104193;28;19950;-83
2021/10/26 17:17:52;;;;;;;;;;;;;;;;;;5103753;28;19912;-82
2021/10/26 17:20:17;;;;;;;;;;;;;;;;;;5103287;28;19947;-81
2021/10/26 17:22:43;;;;;;;;;;;;;;;;;;5103192;28;20029;-81
2021/10/26 17:25:09;;;;;;;;;;;;;;;;;;5102943;28;19962;-82